createdAt,value
2019-03-21T00:00:49.462Z,2.70
2019-03-21T00:03:17.719Z,2.53
2019-03-21T00:05:45.989Z,2.80
2019-03-21T00:08:14.271Z,2.70
2019-03-21T00:10:45.700Z,3.17
2019-03-21T00:13:13.973Z,2.87
2019-03-21T00:15:54.332Z,2.80
2019-03-21T00:18:22.644Z,2.87
2019-03-21T00:20:50.910Z,3.00
2019-03-21T00:23:19.177Z,3.13
2019-03-21T00:25:47.456Z,2.77
2019-03-21T00:28:15.730Z,2.80
2019-03-21T00:30:44.018Z,2.80
2019-03-21T00:33:12.265Z,3.00
2019-03-21T00:35:40.543Z,3.07
2019-03-21T00:38:09.715Z,2.77
2019-03-21T00:40:46.079Z,3.30
2019-03-21T00:43:14.408Z,3.00
2019-03-21T00:45:42.684Z,3.03
2019-03-21T00:48:16.579Z,3.17
2019-03-21T00:50:44.845Z,3.00
2019-03-21T00:53:13.140Z,2.60
2019-03-21T00:55:47.419Z,3.03
2019-03-21T00:58:15.776Z,3.17
2019-03-21T01:00:47.041Z,3.83
2019-03-21T01:03:15.365Z,3.70
2019-03-21T01:05:43.823Z,3.40
2019-03-21T01:08:12.127Z,3.00
2019-03-21T01:10:40.393Z,3.50
2019-03-21T01:13:08.699Z,3.40
2019-03-21T01:15:36.981Z,2.80
2019-03-21T01:18:05.227Z,3.03
2019-03-21T01:20:33.481Z,2.77
2019-03-21T01:23:01.774Z,2.87
2019-03-21T01:25:45.577Z,3.20
2019-03-21T01:28:13.865Z,2.90
2019-03-21T01:30:42.153Z,3.00
2019-03-21T01:33:10.457Z,2.20
2019-03-21T01:35:40.037Z,3.30
2019-03-21T01:38:08.354Z,2.43
2019-03-21T01:40:47.972Z,3.00
2019-03-21T01:43:16.248Z,2.70
2019-03-21T01:45:44.513Z,2.33
2019-03-21T01:48:12.785Z,2.80
2019-03-21T01:50:42.534Z,2.57
2019-03-21T01:53:10.791Z,3.27
2019-03-21T01:55:39.133Z,2.37
2019-03-21T01:58:07.488Z,2.93
2019-03-21T02:00:43.782Z,2.70
2019-03-21T02:03:12.030Z,2.70
2019-03-21T02:05:40.279Z,3.27
2019-03-21T02:08:08.553Z,2.53
2019-03-21T02:10:36.827Z,2.93
2019-03-21T02:13:05.065Z,3.93
2019-03-21T02:15:33.342Z,3.67
2019-03-21T02:18:01.602Z,3.27
2019-03-21T02:20:29.874Z,3.00
2019-03-21T02:22:58.142Z,2.73
2019-03-21T02:25:28.532Z,3.10
2019-03-21T02:27:56.880Z,2.97
2019-03-21T02:30:37.068Z,2.50
2019-03-21T02:33:29.412Z,3.00
2019-03-21T02:35:57.678Z,3.03
2019-03-21T02:38:25.961Z,3.30
2019-03-21T02:40:57.448Z,2.70
2019-03-21T02:43:25.694Z,3.60
2019-03-21T02:45:53.973Z,3.03
2019-03-21T02:48:22.213Z,3.00
2019-03-21T02:50:50.490Z,2.97
2019-03-21T02:53:18.754Z,3.00
2019-03-21T02:55:47.112Z,3.73
2019-03-21T02:58:14.427Z,2.87
2019-03-21T03:00:44.595Z,3.40
2019-03-21T03:03:12.865Z,4.00
2019-03-21T03:05:41.113Z,3.30
2019-03-21T03:08:10.028Z,4.27
2019-03-21T03:10:43.714Z,3.40
2019-03-21T03:13:12.044Z,4.00
2019-03-21T03:15:41.140Z,4.30
2019-03-21T03:18:11.912Z,4.37
2019-03-21T03:20:40.181Z,4.00
2019-03-21T03:23:08.439Z,3.70
2019-03-21T03:25:36.724Z,4.57
2019-03-21T03:28:25.696Z,3.97
2019-03-21T03:30:57.177Z,4.70
2019-03-21T03:33:25.546Z,4.40
2019-03-21T03:35:53.886Z,4.60
2019-03-21T03:38:22.142Z,3.90
2019-03-21T03:41:01.896Z,4.97
2019-03-21T03:43:30.186Z,4.83
2019-03-21T03:45:58.460Z,5.10
2019-03-21T03:48:27.767Z,4.90
2019-03-21T03:50:56.030Z,4.83
2019-03-21T03:53:24.284Z,5.20
2019-03-21T03:55:55.598Z,5.10
2019-03-21T03:58:27.024Z,5.10
2019-03-21T04:00:55.343Z,4.53
2019-03-21T04:03:24.550Z,4.23
2019-03-21T04:05:52.833Z,4.60
2019-03-21T04:08:21.111Z,4.37
2019-03-21T04:10:55.242Z,4.90
2019-03-21T04:13:23.505Z,4.53
2019-03-21T04:15:53.774Z,4.33
2019-03-21T04:18:23.920Z,4.43
2019-03-21T04:21:04.343Z,4.47
2019-03-21T04:23:32.600Z,4.60
2019-03-21T04:26:04.054Z,5.47
2019-03-21T04:28:32.315Z,5.00
2019-03-21T04:31:00.590Z,5.57
2019-03-21T04:33:28.870Z,4.97
2019-03-21T04:35:57.149Z,4.63
2019-03-21T04:38:25.437Z,4.60
2019-03-21T04:40:53.724Z,4.40
2019-03-21T04:43:22.437Z,4.60
2019-03-21T04:45:50.776Z,5.13
2019-03-21T04:48:19.039Z,5.57
2019-03-21T04:50:47.343Z,5.47
2019-03-21T04:53:15.676Z,4.90
2019-03-21T04:55:43.877Z,4.47
2019-03-21T04:58:12.159Z,5.00
2019-03-21T05:00:46.436Z,5.03
2019-03-21T05:03:22.811Z,4.80
2019-03-21T05:05:51.093Z,4.43
2019-03-21T05:08:19.345Z,5.57
2019-03-21T05:10:47.656Z,4.83
2019-03-21T05:13:15.926Z,4.80
2019-03-21T05:15:49.634Z,5.33
2019-03-21T05:18:33.132Z,6.30
2019-03-21T05:21:02.636Z,6.30
2019-03-21T05:23:30.994Z,5.17
2019-03-21T05:25:59.238Z,5.50
2019-03-21T05:28:27.512Z,5.57
2019-03-21T05:31:04.458Z,4.43
2019-03-21T05:33:32.718Z,5.20
2019-03-21T05:36:01.052Z,5.73
2019-03-21T05:38:31.860Z,5.47
2019-03-21T05:41:00.124Z,5.83
2019-03-21T05:43:37.400Z,5.10
2019-03-21T05:46:05.734Z,6.17
2019-03-21T05:48:33.984Z,5.37
2019-03-21T05:51:02.248Z,6.07
2019-03-21T05:53:30.506Z,5.57
2019-03-21T05:55:58.794Z,5.80
2019-03-21T05:58:27.043Z,6.13
2019-03-21T06:01:04.344Z,7.00
2019-03-21T06:03:50.312Z,6.40
2019-03-21T06:06:41.019Z,7.47
2019-03-21T06:09:21.663Z,6.93
2019-03-21T06:11:53.099Z,6.30
2019-03-21T06:14:21.463Z,6.00
2019-03-21T06:16:49.717Z,6.30
2019-03-21T06:19:39.263Z,6.13
2019-03-21T06:22:19.137Z,6.90
2019-03-21T06:24:59.104Z,6.93
2019-03-21T06:27:30.592Z,6.70
2019-03-21T06:29:59.200Z,5.97
2019-03-21T06:32:29.006Z,6.50
2019-03-21T06:34:57.669Z,7.40
2019-03-21T06:37:28.671Z,6.87
2019-03-21T06:39:56.355Z,7.50
2019-03-21T06:42:24.650Z,7.10
2019-03-21T06:44:52.907Z,7.37
2019-03-21T06:47:22.888Z,7.27
2019-03-21T06:49:51.230Z,6.80
2019-03-21T06:52:19.494Z,7.13
2019-03-21T06:54:47.922Z,6.40
2019-03-21T06:57:16.634Z,6.77
2019-03-21T06:59:44.899Z,6.37
2019-03-21T07:02:13.193Z,7.23
2019-03-21T07:04:41.457Z,6.70
2019-03-21T07:07:09.735Z,7.10
2019-03-21T07:09:38.010Z,7.63
2019-03-21T07:12:06.275Z,6.73
2019-03-21T07:14:34.526Z,7.30
2019-03-21T07:17:02.784Z,7.80
2019-03-21T07:19:31.044Z,7.30
2019-03-21T07:21:59.300Z,6.47
2019-03-21T07:24:27.560Z,6.50
2019-03-21T07:26:55.849Z,6.20
2019-03-21T07:29:24.198Z,6.03
2019-03-21T07:31:52.476Z,7.23
2019-03-21T07:34:20.732Z,6.67
2019-03-21T07:36:49.017Z,7.23
2019-03-21T07:39:17.288Z,5.97
2019-03-21T07:41:46.561Z,5.70
2019-03-21T07:44:14.869Z,5.60
2019-03-21T07:46:43.132Z,7.10
2019-03-21T07:49:11.387Z,6.20
2019-03-21T07:51:39.672Z,5.70
2019-03-21T07:54:07.949Z,5.07
2019-03-21T07:56:36.251Z,5.50
2019-03-21T07:59:04.553Z,5.57
2019-03-21T08:01:32.811Z,5.73
2019-03-21T08:04:03.446Z,6.50
2019-03-21T08:06:39.251Z,5.80
2019-03-21T08:09:07.871Z,5.23
2019-03-21T08:11:36.158Z,5.10
2019-03-21T08:14:04.483Z,4.33
2019-03-21T08:16:32.747Z,4.47
2019-03-21T08:19:01.005Z,4.50
2019-03-21T08:21:29.260Z,4.50
2019-03-21T08:23:57.552Z,4.53
2019-03-21T08:26:25.810Z,4.40
2019-03-21T08:28:54.075Z,3.83
2019-03-21T08:31:22.443Z,4.17
2019-03-21T08:33:50.792Z,4.30
2019-03-21T08:36:19.148Z,4.67
2019-03-21T08:38:47.408Z,4.17
2019-03-21T08:41:15.739Z,4.10
2019-03-21T08:43:44.077Z,3.63
2019-03-21T08:46:12.471Z,3.23
2019-03-21T08:48:42.388Z,3.87
2019-03-21T08:51:10.716Z,3.67
2019-03-21T08:53:38.968Z,3.57
2019-03-21T08:56:07.236Z,3.57
2019-03-21T08:58:35.487Z,2.97
2019-03-21T09:01:03.852Z,2.90
2019-03-21T09:03:32.103Z,3.10
2019-03-21T09:06:00.385Z,3.17
2019-03-21T09:08:28.649Z,3.30
2019-03-21T09:10:56.943Z,2.60
2019-03-21T09:13:25.230Z,2.90
2019-03-21T09:15:53.488Z,2.50
2019-03-21T09:18:21.759Z,2.73
2019-03-21T09:20:49.998Z,2.90
2019-03-21T09:23:18.280Z,2.80
2019-03-21T09:25:46.559Z,2.53
2019-03-21T09:28:14.848Z,2.90
2019-03-21T09:30:43.106Z,2.50
2019-03-21T09:33:11.390Z,2.83
2019-03-21T09:35:39.654Z,2.50
2019-03-21T09:38:07.933Z,3.07
2019-03-21T09:40:36.206Z,2.60
2019-03-21T09:43:04.483Z,3.00
2019-03-21T09:45:32.746Z,2.70
2019-03-21T09:48:01.020Z,3.20
2019-03-21T09:50:30.237Z,2.50
2019-03-21T09:52:58.596Z,2.87
2019-03-21T09:55:26.870Z,3.20
2019-03-21T09:57:55.136Z,3.17
2019-03-21T10:00:35.305Z,2.80
2019-03-21T10:03:04.158Z,2.90
2019-03-21T10:05:32.495Z,3.00
2019-03-21T10:08:00.945Z,3.03
2019-03-21T10:10:31.259Z,2.43
2019-03-21T10:12:59.603Z,2.70
2019-03-21T10:15:27.848Z,2.63
2019-03-21T10:17:56.277Z,2.70
2019-03-21T10:20:24.545Z,2.90
2019-03-21T10:22:52.812Z,2.60
2019-03-21T10:25:21.084Z,2.60
2019-03-21T10:27:49.369Z,3.07
2019-03-21T10:30:40.207Z,2.87
2019-03-21T10:33:10.115Z,3.13
2019-03-21T10:35:38.377Z,3.23
2019-03-21T10:38:07.181Z,3.07
2019-03-21T10:40:35.707Z,3.50
2019-03-21T10:43:04.622Z,3.17
2019-03-21T10:45:32.961Z,3.10
2019-03-21T10:48:01.336Z,3.67
2019-03-21T10:50:32.110Z,3.77
2019-03-21T10:53:00.372Z,3.00
2019-03-21T10:55:28.705Z,2.97
2019-03-21T10:57:57.088Z,3.63
2019-03-21T11:00:25.359Z,2.73
2019-03-21T11:02:53.640Z,3.27
2019-03-21T11:05:23.212Z,2.90
2019-03-21T11:07:51.863Z,3.30
2019-03-21T11:10:20.265Z,2.90
2019-03-21T11:12:48.588Z,3.37
2019-03-21T11:15:17.021Z,3.10
2019-03-21T11:17:45.420Z,3.07
2019-03-21T11:20:16.884Z,2.40
2019-03-21T11:22:45.161Z,3.40
2019-03-21T11:25:13.420Z,3.27
2019-03-21T11:27:41.688Z,3.43
2019-03-21T11:30:16.086Z,3.13
2019-03-21T11:32:40.123Z,3.40
2019-03-21T11:35:08.381Z,3.30
2019-03-21T11:37:36.725Z,3.53
2019-03-21T11:40:05.368Z,3.27
2019-03-21T11:42:33.651Z,3.10
2019-03-21T11:45:01.927Z,3.00
2019-03-21T11:47:41.092Z,3.30
2019-03-21T11:50:00.357Z,3.63
2019-03-21T11:52:28.635Z,2.77
2019-03-21T11:54:56.902Z,3.60
2019-03-21T11:57:25.200Z,3.47
2019-03-21T11:59:53.464Z,3.57
2019-03-21T12:02:27.073Z,7.90
2019-03-21T12:04:51.922Z,3.40
2019-03-21T12:07:20.209Z,3.33
2019-03-21T12:09:48.470Z,4.83
2019-03-21T12:12:16.745Z,2.90
2019-03-21T12:14:45.082Z,3.33
2019-03-21T12:17:13.606Z,3.40
2019-03-21T12:19:41.877Z,3.60
2019-03-21T12:22:10.161Z,2.93
2019-03-21T12:24:38.507Z,2.83
2019-03-21T12:27:06.822Z,3.30
2019-03-21T12:29:35.173Z,3.20
2019-03-21T12:32:03.465Z,4.00
2019-03-21T12:34:31.726Z,3.43
2019-03-21T12:37:00.004Z,3.10
2019-03-21T12:39:29.115Z,3.03
2019-03-21T12:41:57.547Z,2.80
2019-03-21T12:44:25.836Z,3.60
2019-03-21T12:46:54.096Z,3.50
2019-03-21T12:49:22.368Z,3.20
2019-03-21T12:51:50.632Z,3.43
2019-03-21T12:54:18.925Z,3.17
2019-03-21T12:56:47.188Z,3.00
2019-03-21T12:59:15.443Z,3.90
2019-03-21T13:01:43.706Z,3.40
2019-03-21T13:04:12.008Z,3.30
2019-03-21T13:06:40.277Z,2.60
2019-03-21T13:09:08.817Z,3.13
2019-03-21T13:11:37.090Z,3.40
2019-03-21T13:14:05.822Z,3.20
2019-03-21T13:16:34.123Z,3.10
2019-03-21T13:19:02.374Z,3.70
2019-03-21T13:21:30.688Z,3.53
2019-03-21T13:23:58.965Z,3.03
2019-03-21T13:26:27.291Z,3.23
2019-03-21T13:28:55.566Z,3.50
2019-03-21T13:31:23.839Z,3.90
2019-03-21T13:33:52.131Z,3.07
2019-03-21T13:36:20.402Z,3.43
2019-03-21T13:38:48.677Z,3.27
2019-03-21T13:41:16.959Z,3.20
2019-03-21T13:43:45.228Z,2.87
2019-03-21T13:46:13.506Z,3.07
2019-03-21T13:48:41.771Z,3.10
2019-03-21T13:51:10.064Z,2.50
2019-03-21T13:53:38.353Z,2.70
2019-03-21T13:56:08.208Z,2.90
2019-03-21T13:58:36.503Z,2.80
2019-03-21T14:01:04.853Z,2.80
2019-03-21T14:03:33.128Z,2.90
2019-03-21T14:06:01.395Z,3.50
2019-03-21T14:08:29.663Z,2.73
2019-03-21T14:10:57.971Z,2.33
2019-03-21T14:13:26.265Z,2.87
2019-03-21T14:15:54.620Z,3.30
2019-03-21T14:18:22.910Z,2.67
2019-03-21T14:20:51.187Z,2.90
2019-03-21T14:23:19.466Z,3.07
2019-03-21T14:25:47.757Z,2.83
2019-03-21T14:28:16.054Z,2.70
2019-03-21T14:30:44.392Z,2.77
2019-03-21T14:33:12.677Z,2.50
2019-03-21T14:35:41.039Z,2.60
2019-03-21T14:38:09.321Z,2.27
2019-03-21T14:40:37.604Z,2.33
2019-03-21T14:43:05.941Z,2.40
2019-03-21T14:45:34.226Z,2.63
2019-03-21T14:48:02.509Z,2.60
2019-03-21T14:50:30.791Z,2.40
2019-03-21T14:52:59.059Z,2.50
2019-03-21T14:55:27.350Z,2.50
2019-03-21T14:57:56.199Z,2.63
2019-03-21T15:00:25.055Z,2.23
2019-03-21T15:02:53.324Z,2.83
2019-03-21T15:05:21.640Z,3.77
2019-03-21T15:07:49.913Z,3.20
2019-03-21T15:10:18.936Z,2.27
2019-03-21T15:12:47.261Z,2.30
2019-03-21T15:15:16.021Z,2.20
2019-03-21T15:17:44.370Z,2.80
2019-03-21T15:20:14.966Z,2.10
2019-03-21T15:22:43.325Z,2.00
2019-03-21T15:25:13.202Z,2.03
2019-03-21T15:27:41.472Z,2.07
2019-03-21T15:30:20.204Z,2.30
2019-03-21T15:32:48.497Z,2.13
2019-03-21T15:35:17.801Z,2.07
2019-03-21T15:37:46.161Z,1.90
2019-03-21T15:40:15.915Z,1.83
2019-03-21T15:42:44.370Z,2.37
2019-03-21T15:45:22.835Z,2.80
2019-03-21T15:47:48.266Z,2.03
2019-03-21T15:50:33.901Z,2.47
2019-03-21T15:53:02.164Z,2.60
2019-03-21T15:55:30.508Z,2.17
2019-03-21T15:57:58.857Z,2.27
2019-03-21T16:00:43.152Z,2.53
2019-03-21T16:03:12.354Z,2.43
2019-03-21T16:05:40.905Z,2.23
2019-03-21T16:08:09.573Z,2.27
2019-03-21T16:10:38.025Z,2.47
2019-03-21T16:13:06.421Z,2.10
2019-03-21T16:15:34.775Z,2.23
2019-03-21T16:18:03.213Z,2.13
2019-03-21T16:20:31.485Z,2.30
2019-03-21T16:22:59.740Z,2.33
2019-03-21T16:25:31.419Z,2.37
2019-03-21T16:27:59.693Z,1.83
2019-03-21T16:30:27.976Z,2.30
2019-03-21T16:32:56.228Z,1.80
2019-03-21T16:35:24.576Z,2.10
2019-03-21T16:37:53.043Z,2.20
2019-03-21T16:40:21.315Z,2.40
2019-03-21T16:42:49.602Z,2.40
2019-03-21T16:45:20.978Z,2.30
2019-03-21T16:47:48.177Z,2.23
2019-03-21T16:50:16.503Z,2.13
2019-03-21T16:52:44.768Z,2.40
2019-03-21T16:55:14.050Z,2.43
2019-03-21T16:57:42.563Z,2.30
2019-03-21T17:00:13.252Z,2.67
2019-03-21T17:02:41.581Z,3.13
2019-03-21T17:05:09.967Z,2.97
2019-03-21T17:07:38.229Z,3.20
2019-03-21T17:10:08.329Z,3.20
2019-03-21T17:12:36.607Z,2.87
2019-03-21T17:15:06.801Z,3.13
2019-03-21T17:17:35.133Z,3.20
2019-03-21T17:20:04.975Z,3.77
2019-03-21T17:22:33.260Z,4.10
2019-03-21T17:25:01.510Z,4.93
2019-03-21T17:27:29.764Z,5.10
2019-03-21T17:29:58.104Z,5.20
2019-03-21T17:32:26.449Z,5.20
2019-03-21T17:34:54.843Z,5.63
2019-03-21T17:37:23.094Z,5.73
2019-03-21T17:39:51.378Z,5.80
2019-03-21T17:42:21.045Z,5.27
2019-03-21T17:44:49.642Z,5.60
2019-03-21T17:47:17.954Z,4.50
2019-03-21T17:49:46.248Z,5.60
2019-03-21T17:52:14.534Z,5.60
2019-03-21T17:54:42.807Z,4.90
2019-03-21T17:57:11.161Z,6.40
2019-03-21T17:59:39.411Z,5.43
2019-03-21T18:02:07.833Z,4.77
2019-03-21T18:04:36.168Z,5.17
2019-03-21T18:07:04.429Z,7.93
2019-03-21T18:09:32.785Z,5.53
2019-03-21T18:12:01.128Z,6.30
2019-03-21T18:14:29.503Z,13.33
2019-03-21T18:16:57.760Z,6.60
2019-03-21T18:19:26.065Z,5.57
2019-03-21T18:22:06.956Z,5.60
2019-03-21T18:24:53.084Z,5.93
2019-03-21T18:27:11.625Z,6.50
2019-03-21T18:29:39.917Z,5.60
2019-03-21T18:32:08.186Z,5.83
2019-03-21T18:34:36.492Z,4.97
2019-03-21T18:37:04.747Z,6.27
2019-03-21T18:39:33.006Z,5.60
2019-03-21T18:42:01.310Z,5.87
2019-03-21T18:44:29.563Z,6.53
2019-03-21T18:46:57.864Z,6.70
2019-03-21T18:49:26.152Z,5.47
2019-03-21T18:51:54.503Z,5.60
2019-03-21T18:54:22.770Z,6.20
2019-03-21T18:56:51.064Z,5.17
2019-03-21T18:59:19.367Z,4.90
2019-03-21T19:01:58.004Z,6.10
2019-03-21T19:04:17.638Z,6.90
2019-03-21T19:06:45.966Z,8.03
2019-03-21T19:09:14.229Z,13.67
2019-03-21T19:11:42.508Z,8.40
2019-03-21T19:14:10.790Z,15.93
2019-03-21T19:16:39.067Z,10.80
2019-03-21T19:19:07.370Z,12.53
2019-03-21T19:21:35.903Z,11.00
2019-03-21T19:24:04.239Z,4.97
2019-03-21T19:26:32.575Z,18.57
2019-03-21T19:29:02.644Z,25.37
2019-03-21T19:31:31.009Z,19.77
2019-03-21T19:33:59.259Z,4.63
2019-03-21T19:36:27.603Z,4.80
2019-03-21T19:38:55.869Z,4.70
2019-03-21T19:41:24.274Z,4.50
2019-03-21T19:43:52.596Z,4.73
2019-03-21T19:46:20.925Z,5.73
2019-03-21T19:48:50.403Z,7.10
2019-03-21T19:51:19.010Z,6.20
2019-03-21T19:53:47.361Z,9.10
2019-03-21T19:56:16.008Z,11.60
2019-03-21T19:58:44.278Z,17.47
2019-03-21T20:01:12.559Z,7.10
2019-03-21T20:03:40.979Z,8.40
2019-03-21T20:06:09.272Z,12.20
2019-03-21T20:08:37.559Z,13.03
2019-03-21T20:11:05.903Z,5.80
2019-03-21T20:13:34.163Z,4.90
2019-03-21T20:16:02.458Z,6.77
2019-03-21T20:18:30.759Z,6.17
2019-03-21T20:20:59.106Z,30.47
2019-03-21T20:23:27.372Z,13.33
2019-03-21T20:25:55.663Z,7.43
2019-03-21T20:28:23.973Z,7.73
2019-03-21T20:30:52.274Z,4.87
2019-03-21T20:33:20.546Z,5.50
2019-03-21T20:35:48.841Z,5.17
2019-03-21T20:38:17.109Z,4.80
2019-03-21T20:40:45.395Z,12.60
2019-03-21T20:43:13.732Z,9.10
2019-03-21T20:45:41.998Z,7.83
2019-03-21T20:48:10.333Z,5.80
2019-03-21T20:50:38.599Z,4.97
2019-03-21T20:53:06.874Z,8.63
2019-03-21T20:55:35.147Z,7.07
2019-03-21T20:58:03.464Z,6.20
2019-03-21T21:00:31.812Z,21.30
2019-03-21T21:03:00.125Z,16.53
2019-03-21T21:05:28.410Z,8.73
2019-03-21T21:07:56.676Z,6.67
2019-03-21T21:10:24.953Z,5.33
2019-03-21T21:12:53.242Z,10.00
2019-03-21T21:15:21.525Z,8.70
2019-03-21T21:17:49.805Z,5.43
2019-03-21T21:20:19.250Z,6.40
2019-03-21T21:22:47.521Z,6.30
2019-03-21T21:25:15.792Z,5.77
2019-03-21T21:27:49.650Z,12.90
2019-03-21T21:30:17.549Z,16.77
2019-03-21T21:32:45.861Z,11.23
2019-03-21T21:35:14.187Z,13.27
2019-03-21T21:37:42.591Z,12.70
2019-03-21T21:40:12.101Z,6.70
2019-03-21T21:42:40.474Z,10.60
2019-03-21T21:45:13.938Z,15.43
2019-03-21T21:47:42.235Z,6.40
2019-03-21T21:50:12.861Z,6.10
2019-03-21T21:52:42.096Z,5.80
2019-03-21T21:55:10.842Z,5.60
2019-03-21T21:57:39.248Z,5.43
2019-03-21T22:00:16.199Z,6.53
2019-03-21T22:02:44.600Z,11.00
2019-03-21T22:05:12.948Z,18.00
2019-03-21T22:07:41.322Z,11.63
2019-03-21T22:10:11.520Z,6.57
2019-03-21T22:12:39.809Z,9.03
2019-03-21T22:15:11.277Z,11.00
2019-03-21T22:17:39.535Z,6.97
2019-03-21T22:20:09.940Z,8.03
2019-03-21T22:22:38.236Z,7.03
2019-03-21T22:25:10.657Z,6.27
2019-03-21T22:27:38.953Z,10.00
2019-03-21T22:30:13.025Z,7.53
2019-03-21T22:32:41.297Z,7.10
2019-03-21T22:35:09.820Z,6.80
2019-03-21T22:37:38.116Z,5.77
2019-03-21T22:40:08.823Z,7.00
2019-03-21T22:42:37.370Z,6.90
2019-03-21T22:45:11.249Z,6.70
2019-03-21T22:47:39.601Z,5.40
2019-03-21T22:50:14.963Z,5.37
2019-03-21T22:52:43.942Z,5.60
2019-03-21T22:55:12.675Z,6.50
2019-03-21T22:57:41.105Z,9.70
2019-03-21T23:00:12.547Z,9.40
2019-03-21T23:02:41.558Z,7.00
2019-03-21T23:05:10.173Z,13.17
2019-03-21T23:07:38.492Z,10.30
2019-03-21T23:10:07.939Z,6.80
2019-03-21T23:12:36.212Z,6.13
2019-03-21T23:15:06.699Z,5.87
2019-03-21T23:17:34.976Z,6.27
2019-03-21T23:20:08.171Z,5.10
2019-03-21T23:22:36.451Z,5.67
2019-03-21T23:25:06.843Z,5.20
2019-03-21T23:27:35.119Z,5.17
2019-03-21T23:30:06.151Z,5.00
2019-03-21T23:32:34.404Z,5.23
2019-03-21T23:35:02.703Z,6.60
2019-03-21T23:37:30.952Z,6.90
2019-03-21T23:39:59.205Z,7.60
2019-03-21T23:42:27.605Z,7.00
2019-03-21T23:44:55.872Z,6.73
2019-03-21T23:47:26.935Z,8.13
2019-03-21T23:49:55.448Z,9.93
2019-03-21T23:52:23.784Z,9.60
2019-03-21T23:54:52.144Z,8.50
2019-03-21T23:57:20.412Z,9.10
2019-03-21T23:59:48.723Z,7.73
